Asbury, NJ

10:03 AM EST on February 11, 2016 (GMT -0500)
BTAP Running Station - Bellwood Park Road | | Change Station
CLOSE
Current Station
Personal Weather Station
Location: Asbury, NJ
Elevation: 745 ft
Nearby Weather Stations

Elev 745 ft 40.64 °N, 75.03 °W | Updated 1 minute ago

Partly Cloudy
Partly Cloudy
18.7 °F
Feels Like 7 °F
N
10.9
Wind Variable Wind from ENE

Today
High -- | Low -- °F
--% Chance of Precip.
Yesterday
High -- | Low -- °F
Precip. -- in
Pressure 29.94 in
Visibility 10.0 miles
Clouds Mostly Cloudy 5000 ft
Windchill 7 °F
Dew Point 12 °F
Humidity 74%
Rainfall 0.00 in
Snow Depth Not available.
6:59 AM 5:29 PM
Waxing Crescent, 12% visible
METAR KSMQ 111453Z AUTO 27011G22KT 220V310 10SM BKN050 M05/M16 A2993 RMK AO2 SLP138 T10501156 51015
Pressure 29.94 in
Visibility 10.0 miles
Clouds Mostly Cloudy 5000 ft
Windchill 7 °F
Dew Point 12 °F
Humidity 74%
Rainfall 0.00 in
Snow Depth Not available.
6:59 AM 5:29 PM
Waxing Crescent, 12% visible
METAR KSMQ 111453Z AUTO 27011G22KT 220V310 10SM BKN050 M05/M16 A2993 RMK AO2 SLP138 T10501156 51015

10-Day Weather Forecast

Almanac

Astronomy

Feb. 11, 2016 Rise Set
Actual Time
Civil Twilight
Nautical Twilight
Astronomical Twilight
Moon
Length of Visible Light
Length of Day
Tomorrow will be .
, % of the Moon is Illuminated

Today's Extremes

State Highs State Lows

Community

WunderPhotos

Upload Photos

1,892,059 photos uploaded!

WunderBlog® & News

Nearby

Air Quality

  Air Quality AQ Index Pollutant
Not available.

Snow Depth

Station Depth Elevation

Earthquake Activity

City Distance Mag. Time & Date
Minimum magnitude displayed is 2.5.

Coastal Water Temperatures

Place Temperature

Stations

Nearby Weather Stations

Station Location Temp. Windchill Dew Point Humidity Wind Precip. Elev Updated Type
                   

Watches & Warnings

There are currently no watches in effect.